Time;durP1;ratioP1;P1;durP2;ratioP2;P2;SDS_P1;SDS_P2;PMS_P1;PMS_P2;Temp;Humidity;BMP_temperature;BMP_pressure;BME280_temperature;BME280_humidity;BME280_pressure;Samples;Min_cycle;Max_cycle;Signal;HPM_P1;HPM_P2
2023/08/01 00:00:43;;;;;;;18.27;5.75;;;16.50;99.90;;;;;;5030974;28;20666;-78
2023/08/01 00:03:08;;;;;;;21.63;6.13;;;16.40;99.90;;;;;;5031072;28;20228;-76
2023/08/01 00:05:34;;;;;;;22.05;5.40;;;16.40;99.90;;;;;;5029760;28;20570;-77
2023/08/01 00:08:02;;;;;;;24.48;5.22;;;16.40;99.90;;;;;;5030877;28;20580;-76
2023/08/01 00:10:27;;;;;;;21.58;5.50;;;16.50;99.90;;;;;;5030931;28;20178;-77
2023/08/01 00:12:53;;;;;;;20.58;4.68;;;16.50;99.90;;;;;;5030726;28;20203;-76
2023/08/01 00:15:19;;;;;;;17.80;4.55;;;16.40;99.90;;;;;;5013269;28;20185;-77
2023/08/01 00:17:44;;;;;;;19.95;4.60;;;16.40;99.90;;;;;;5029926;28;20173;-78
2023/08/01 00:20:10;;;;;;;24.13;4.50;;;16.40;99.90;;;;;;5030156;28;20223;-80
2023/08/01 00:22:36;;;;;;;24.33;4.88;;;;;;;;;;5029963;28;20158;-77
2023/08/01 00:25:02;;;;;;;17.85;4.28;;;;;;;;;;5031079;28;20177;-84
2023/08/01 00:27:28;;;;;;;20.00;4.90;;;16.00;99.90;;;;;;5045655;28;20652;-78
2023/08/01 00:29:54;;;;;;;18.23;4.28;;;16.20;99.90;;;;;;5033532;28;20162;-76
2023/08/01 00:32:20;;;;;;;22.90;4.88;;;16.50;99.90;;;;;;5034769;28;20230;-76
2023/08/01 00:34:45;;;;;;;16.45;4.25;;;16.50;99.90;;;;;;5017213;28;20173;-77
2023/08/01 00:37:12;;;;;;;19.77;4.85;;;16.40;99.90;;;;;;5032935;28;20257;-76
2023/08/01 00:39:38;;;;;;;18.73;3.70;;;16.30;99.90;;;;;;5034772;28;20210;-77
2023/08/01 00:42:04;;;;;;;14.77;3.83;;;16.20;99.90;;;;;;5049869;28;20710;-77
2023/08/01 00:44:29;;;;;;;21.60;4.00;;;16.50;99.90;;;;;;5052024;28;20188;-75
2023/08/01 00:46:55;;;;;;;15.35;3.33;;;;;;;;;;5034569;28;20219;-75
2023/08/01 00:49:21;;;;;;;19.83;4.07;;;;;;;;;;5032922;28;20548;-75
2023/08/01 00:51:47;;;;;;;22.17;3.47;;;16.20;99.90;;;;;;5039882;28;20185;-78
2023/08/01 00:54:14;;;;;;;16.73;3.78;;;16.30;99.90;;;;;;5045526;28;20184;-75
2023/08/01 00:56:40;;;;;;;15.38;3.40;;;;;;;;;;5049460;28;20170;-75
2023/08/01 00:59:06;;;;;;;16.25;3.70;;;16.30;99.90;;;;;;5032800;28;20205;-75
2023/08/01 01:01:32;;;;;;;16.35;3.75;;;16.50;99.90;;;;;;5034161;28;20182;-77
2023/08/01 01:03:57;;;;;;;16.15;3.88;;;16.40;99.90;;;;;;5035493;28;20181;-75
2023/08/01 01:06:34;;;;;;;17.27;4.32;;;16.10;99.90;;;;;;5034954;28;20277;-74
2023/08/01 01:09:00;;;;;;;13.88;3.95;;;16.40;99.90;;;;;;5033810;28;20526;-75
2023/08/01 01:11:25;;;;;;;19.88;3.92;;;16.50;99.90;;;;;;5034032;28;20691;-74
2023/08/01 01:13:54;;;;;;;19.17;4.32;;;16.20;99.90;;;;;;5033784;28;20178;-74
2023/08/01 01:16:20;;;;;;;16.05;3.85;;;16.20;99.90;;;;;;5029137;28;20263;-74
2023/08/01 01:18:46;;;;;;;21.10;4.35;;;;;;;;;;5013928;28;20221;-77
2023/08/01 01:21:12;;;;;;;19.60;4.32;;;16.20;99.90;;;;;;5012669;28;20179;-75
2023/08/01 01:23:39;;;;;;;16.23;3.95;;;15.90;99.90;;;;;;5013858;28;20186;-76
2023/08/01 01:26:07;;;;;;;21.10;4.20;;;16.10;99.90;;;;;;5013892;28;20719;-75
2023/08/01 01:28:33;;;;;;;13.55;3.75;;;;;;;;;;5012574;28;20179;-75
2023/08/01 01:31:01;;;;;;;17.23;3.97;;;16.00;99.90;;;;;;5013841;28;20179;-81
2023/08/01 01:33:27;;;;;;;18.20;4.13;;;16.10;99.90;;;;;;5013795;28;20257;-76
2023/08/01 01:35:53;;;;;;;22.73;3.85;;;16.00;99.90;;;;;;5013355;28;20167;-75
2023/08/01 01:38:19;;;;;;;13.23;3.05;;;16.40;99.90;;;;;;5027724;28;20780;-79
2023/08/01 01:40:45;;;;;;;19.58;3.58;;;15.90;99.90;;;;;;5013639;28;20254;-75
2023/08/01 01:43:10;;;;;;;14.48;3.17;;;15.90;99.90;;;;;;5018629;28;20262;-76
2023/08/01 01:45:36;;;;;;;14.98;2.65;;;15.90;99.90;;;;;;5016725;28;20657;-77
2023/08/01 01:48:01;;;;;;;10.95;2.70;;;15.80;99.90;;;;;;5013407;28;20198;-76
2023/08/01 01:50:27;;;;;;;11.13;2.85;;;15.80;99.90;;;;;;5013634;28;20706;-75
2023/08/01 01:52:52;;;;;;;14.85;3.05;;;15.70;99.90;;;;;;5033036;28;20723;-75
2023/08/01 01:55:18;;;;;;;13.57;3.15;;;16.00;99.90;;;;;;5033388;28;20253;-76
2023/08/01 01:57:44;;;;;;;8.23;2.42;;;15.80;99.90;;;;;;5049458;28;20173;-75
2023/08/01 02:00:10;;;;;;;13.55;2.72;;;15.80;99.90;;;;;;5037735;28;20517;-78
2023/08/01 02:02:36;;;;;;;9.65;1.95;;;;;;;;;;5040427;28;20255;-75
2023/08/01 02:05:03;;;;;;;14.25;2.47;;;15.60;99.90;;;;;;5050503;28;20422;-78
2023/08/01 02:07:29;;;;;;;13.90;2.70;;;15.70;99.90;;;;;;5036949;28;20169;-76
2023/08/01 02:09:55;;;;;;;6.70;2.13;;;15.80;99.90;;;;;;5032851;28;20190;-75
2023/08/01 02:12:21;;;;;;;13.95;2.25;;;15.80;99.90;;;;;;5032885;28;20174;-75
2023/08/01 02:14:46;;;;;;;11.65;2.28;;;15.60;99.90;;;;;;5030564;28;20639;-76
2023/08/01 02:17:12;;;;;;;15.90;2.70;;;15.60;99.90;;;;;;5020931;28;20174;-76
2023/08/01 02:19:38;;;;;;;13.50;2.78;;;;;;;;;;5034062;28;20565;-75
2023/08/01 02:22:04;;;;;;;9.18;2.05;;;15.50;99.90;;;;;;5024332;28;20677;-75
2023/08/01 02:24:29;;;;;;;9.77;2.78;;;15.60;99.90;;;;;;5027958;28;20183;-74
2023/08/01 02:26:55;;;;;;;12.98;2.47;;;;;;;;;;5027689;28;20182;-76
2023/08/01 02:29:21;;;;;;;11.82;2.75;;;15.50;99.90;;;;;;5032360;28;20216;-74
2023/08/01 02:31:47;;;;;;;10.27;2.40;;;15.60;99.90;;;;;;5032109;28;20169;-75
2023/08/01 02:34:12;;;;;;;8.07;2.30;;;15.60;99.90;;;;;;5031923;28;20178;-76
2023/08/01 02:36:40;;;;;;;14.45;2.28;;;15.60;99.90;;;;;;5032115;28;20209;-78
2023/08/01 02:39:06;;;;;;;14.50;2.47;;;15.60;99.90;;;;;;5032243;28;20206;-75
2023/08/01 02:41:32;;;;;;;17.67;2.80;;;15.60;99.90;;;;;;5032159;28;20178;-76
2023/08/01 02:43:57;;;;;;;7.93;2.25;;;15.60;99.90;;;;;;5031994;28;20628;-74
2023/08/01 02:46:23;;;;;;;11.68;2.95;;;15.60;99.90;;;;;;5031987;28;20170;-74
2023/08/01 02:48:48;;;;;;;11.25;2.97;;;15.60;99.90;;;;;;5037000;28;20667;-75
2023/08/01 02:51:14;;;;;;;11.40;3.17;;;15.60;99.90;;;;;;5041529;28;20181;-79
2023/08/01 02:53:41;;;;;;;11.50;2.78;;;15.60;99.90;;;;;;5042457;28;20173;-75
2023/08/01 02:56:08;;;;;;;13.55;2.83;;;15.40;99.90;;;;;;5051552;28;20188;-76
2023/08/01 02:58:34;;;;;;;16.27;3.70;;;15.60;99.90;;;;;;5047427;28;20217;-75
2023/08/01 03:01:01;;;;;;;16.40;3.38;;;15.60;99.90;;;;;;5034557;28;20173;-75
2023/08/01 03:03:26;;;;;;;13.00;3.08;;;15.60;99.90;;;;;;5050291;28;20551;-75
2023/08/01 03:05:52;;;;;;;13.90;3.22;;;15.40;99.90;;;;;;5042265;28;20194;-75
2023/08/01 03:08:18;;;;;;;16.25;2.72;;;15.60;99.90;;;;;;5040372;28;20177;-77
2023/08/01 03:10:44;;;;;;;16.85;3.20;;;;;;;;;;5028253;28;20245;-75
2023/08/01 03:13:10;;;;;;;15.35;3.05;;;15.30;99.90;;;;;;5042887;28;20185;-78
2023/08/01 03:15:36;;;;;;;14.88;2.88;;;;;;;;;;5049541;28;20177;-75
2023/08/01 03:18:01;;;;;;;13.43;2.80;;;15.00;99.90;;;;;;5035167;28;20169;-74
2023/08/01 03:20:27;;;;;;;15.55;3.20;;;15.50;99.90;;;;;;5051183;28;20169;-75
2023/08/01 03:22:53;;;;;;;16.25;3.15;;;15.50;99.90;;;;;;5050959;28;20667;-75
2023/08/01 03:25:18;;;;;;;17.80;2.80;;;15.80;99.90;;;;;;5049695;28;20200;-76
2023/08/01 03:27:44;;;;;;;12.70;3.08;;;15.50;99.90;;;;;;5050985;28;20169;-76
2023/08/01 03:30:10;;;;;;;13.50;2.75;;;15.50;99.90;;;;;;5044334;28;20178;-79
2023/08/01 03:32:37;;;;;;;20.20;2.90;;;15.20;99.90;;;;;;5031060;28;20177;-77
2023/08/01 03:35:06;;;;;;;16.17;2.85;;;15.40;99.90;;;;;;5031095;28;20228;-77
2023/08/01 03:37:31;;;;;;;14.32;2.95;;;15.40;99.90;;;;;;5032913;28;20209;-75
2023/08/01 03:39:57;;;;;;;14.18;2.72;;;15.30;99.90;;;;;;5037228;28;20702;-74
2023/08/01 03:42:22;;;;;;;12.70;3.22;;;15.40;99.90;;;;;;5051065;28;20165;-77
2023/08/01 03:44:48;;;;;;;12.68;2.45;;;15.40;99.90;;;;;;5049310;28;20586;-76
2023/08/01 03:47:13;;;;;;;15.88;3.08;;;15.20;99.90;;;;;;5031063;28;20316;-77
2023/08/01 03:49:39;;;;;;;23.58;2.50;;;;;;;;;;5030795;28;20186;-76
2023/08/01 03:52:06;;;;;;;10.23;2.22;;;15.30;99.90;;;;;;5030069;28;20181;-74
2023/08/01 03:54:31;;;;;;;11.00;2.50;;;15.30;99.90;;;;;;5045436;28;20288;-74
2023/08/01 03:56:57;;;;;;;14.95;2.88;;;15.20;99.90;;;;;;5032693;28;20613;-75
2023/08/01 03:59:23;;;;;;;13.13;2.30;;;15.20;99.90;;;;;;5030821;28;20734;-75
2023/08/01 04:01:50;;;;;;;11.05;2.55;;;15.60;99.90;;;;;;5028924;28;20213;-80
2023/08/01 04:04:16;;;;;;;11.50;2.15;;;15.20;99.90;;;;;;5030929;28;20177;-75
2023/08/01 04:06:42;;;;;;;9.13;1.92;;;15.10;99.90;;;;;;5030896;28;20257;-77
2023/08/01 04:09:07;;;;;;;11.82;2.03;;;15.00;99.90;;;;;;5030863;28;20197;-76
2023/08/01 04:11:33;;;;;;;13.68;2.22;;;15.30;99.90;;;;;;5029539;28;20240;-75
2023/08/01 04:13:59;;;;;;;16.38;2.28;;;15.40;99.90;;;;;;5031928;28;20205;-75
2023/08/01 04:16:24;;;;;;;11.30;2.13;;;15.10;99.90;;;;;;5031038;28;20170;-76
2023/08/01 04:18:50;;;;;;;13.43;2.85;;;15.20;99.90;;;;;;5013042;28;20260;-74
2023/08/01 04:21:15;;;;;;;12.18;2.10;;;15.30;99.90;;;;;;5030719;28;20645;-74
2023/08/01 04:23:41;;;;;;;8.25;1.60;;;15.40;99.90;;;;;;5030725;28;20174;-74
2023/08/01 04:26:07;;;;;;;11.70;2.30;;;15.30;99.90;;;;;;5030690;28;20643;-74
2023/08/01 04:28:33;;;;;;;10.02;2.05;;;15.30;99.90;;;;;;5030585;28;20251;-74
2023/08/01 04:30:59;;;;;;;10.40;2.13;;;15.20;99.90;;;;;;5030656;28;20174;-75
2023/08/01 04:33:24;;;;;;;12.65;1.63;;;15.20;99.90;;;;;;5030646;28;20652;-74
2023/08/01 04:35:50;;;;;;;16.35;2.65;;;15.10;99.90;;;;;;5030366;28;20650;-74
2023/08/01 04:38:16;;;;;;;9.07;1.92;;;15.20;99.90;;;;;;5030460;28;20226;-75
2023/08/01 04:40:42;;;;;;;11.70;1.88;;;15.20;99.90;;;;;;5030625;28;20185;-74
2023/08/01 04:43:07;;;;;;;9.77;1.90;;;15.20;99.90;;;;;;5030594;28;20231;-75
2023/08/01 04:45:33;;;;;;;17.90;2.30;;;15.20;99.90;;;;;;5029172;28;20224;-74
2023/08/01 04:47:59;;;;;;;17.98;2.13;;;15.30;99.90;;;;;;5030726;28;20180;-75
2023/08/01 04:50:24;;;;;;;8.10;1.75;;;15.20;99.90;;;;;;5030433;28;20227;-74
2023/08/01 04:52:50;;;;;;;9.45;2.15;;;15.20;99.90;;;;;;5032389;28;20174;-75
2023/08/01 04:55:15;;;;;;;9.25;2.03;;;15.40;99.90;;;;;;5030729;28;20201;-75
2023/08/01 04:57:42;;;;;;;13.75;2.80;;;15.30;99.90;;;;;;5030843;28;20764;-75
2023/08/01 05:00:10;;;;;;;10.75;2.15;;;15.30;99.90;;;;;;5030354;28;20581;-79
2023/08/01 05:02:35;;;;;;;11.82;2.50;;;15.30;99.90;;;;;;5035225;28;20170;-76
2023/08/01 05:05:01;;;;;;;11.73;2.55;;;15.30;99.90;;;;;;5046449;28;20192;-77
2023/08/01 05:07:26;;;;;;;13.05;2.30;;;15.40;99.90;;;;;;5045845;28;20166;-74
2023/08/01 05:09:52;;;;;;;9.35;2.03;;;15.40;99.90;;;;;;5038814;28;20633;-77
2023/08/01 05:12:18;;;;;;;10.00;1.85;;;;;;;;;;5032003;28;20233;-79
2023/08/01 05:14:44;;;;;;;13.00;2.30;;;15.50;99.90;;;;;;5031384;28;20658;-77
2023/08/01 05:17:09;;;;;;;18.10;2.10;;;;;;;;;;5034167;28;20181;-80
2023/08/01 05:19:35;;;;;;;12.38;2.28;;;15.40;99.90;;;;;;5032750;28;20568;-77
2023/08/01 05:22:01;;;;;;;11.10;2.35;;;15.50;99.90;;;;;;5034042;28;20284;-77
2023/08/01 05:24:27;;;;;;;13.35;2.47;;;15.50;99.90;;;;;;5033660;28;20640;-77
2023/08/01 05:26:52;;;;;;;11.07;2.13;;;15.60;99.90;;;;;;5032720;28;20265;-77
2023/08/01 05:29:18;;;;;;;13.05;2.20;;;15.70;99.90;;;;;;5033888;28;20637;-77
2023/08/01 05:31:43;;;;;;;11.55;1.83;;;15.70;99.90;;;;;;5037343;28;20177;-76
2023/08/01 05:34:09;;;;;;;14.55;2.22;;;15.70;99.90;;;;;;5033955;28;20178;-74
2023/08/01 05:36:35;;;;;;;11.25;2.00;;;15.60;99.90;;;;;;5033803;28;20218;-74
2023/08/01 05:39:00;;;;;;;12.75;2.00;;;15.70;99.90;;;;;;5033425;28;20197;-78
2023/08/01 05:41:26;;;;;;;8.27;2.17;;;15.70;99.90;;;;;;5033479;28;20536;-75
2023/08/01 05:43:52;;;;;;;18.73;2.38;;;15.60;99.90;;;;;;5033454;28;20186;-75
2023/08/01 05:46:18;;;;;;;26.52;3.10;;;15.90;99.90;;;;;;5032616;28;20177;-74
2023/08/01 05:48:43;;;;;;;14.57;2.00;;;15.70;99.90;;;;;;5033636;28;20211;-75
2023/08/01 05:51:09;;;;;;;15.65;2.47;;;15.90;99.90;;;;;;5030877;28;20698;-76
2023/08/01 05:53:35;;;;;;;13.05;1.98;;;15.70;99.90;;;;;;5024669;28;20205;-77
2023/08/01 05:56:01;;;;;;;16.92;2.53;;;;;;;;;;5033118;28;20544;-76
2023/08/01 05:58:26;;;;;;;15.45;2.38;;;16.00;99.90;;;;;;5017791;28;20202;-75
2023/08/01 06:00:52;;;;;;;7.93;1.95;;;15.90;99.90;;;;;;5025019;28;20265;-76
2023/08/01 06:03:18;;;;;;;9.07;2.40;;;;;;;;;;5050410;28;20260;-76
2023/08/01 06:05:44;;;;;;;8.75;2.40;;;15.80;99.90;;;;;;5033048;28;20172;-77
2023/08/01 06:08:09;;;;;;;10.50;2.30;;;15.60;99.90;;;;;;5039117;28;20176;-74
2023/08/01 06:10:36;;;;;;;14.88;2.83;;;16.00;99.90;;;;;;5033002;28;20189;-76
2023/08/01 06:13:02;;;;;;;17.63;3.00;;;16.00;99.90;;;;;;5033730;28;20174;-77
2023/08/01 06:15:27;;;;;;;16.08;2.83;;;16.00;99.90;;;;;;5033169;28;20188;-78
2023/08/01 06:17:53;;;;;;;13.50;4.03;;;16.00;99.90;;;;;;5032924;28;20674;-81
2023/08/01 06:20:19;;;;;;;9.90;3.15;;;16.20;99.90;;;;;;5033109;28;20174;-76
2023/08/01 06:22:45;;;;;;;14.35;3.20;;;16.20;99.90;;;;;;5033343;28;20166;-78
2023/08/01 06:25:10;;;;;;;14.55;4.18;;;16.20;99.90;;;;;;5032182;28;20178;-78
2023/08/01 06:27:37;;;;;;;14.18;3.88;;;16.10;99.90;;;;;;5033076;28;20181;-78
2023/08/01 06:30:03;;;;;;;14.40;3.92;;;16.20;99.90;;;;;;5032746;28;20173;-75
2023/08/01 06:32:29;;;;;;;14.48;4.28;;;16.30;99.90;;;;;;5031990;28;20185;-72
2023/08/01 06:34:54;;;;;;;16.45;4.00;;;16.30;99.90;;;;;;5044123;28;20541;-72
2023/08/01 06:37:20;;;;;;;12.10;3.97;;;16.40;99.90;;;;;;5032471;28;20239;-73
2023/08/01 06:39:46;;;;;;;14.75;3.60;;;16.40;99.90;;;;;;5032200;28;20206;-72
2023/08/01 06:42:11;;;;;;;15.32;4.30;;;16.50;99.90;;;;;;5047074;28;20173;-73
2023/08/01 06:44:37;;;;;;;17.65;4.32;;;16.40;99.90;;;;;;5048603;28;20181;-73
2023/08/01 06:47:03;;;;;;;13.48;3.85;;;16.50;99.90;;;;;;5046018;28;20644;-72
2023/08/01 06:49:28;;;;;;;12.48;3.15;;;16.60;99.90;;;;;;5051457;28;20169;-72
2023/08/01 06:51:54;;;;;;;10.82;3.40;;;16.70;99.90;;;;;;5028125;28;20548;-73
2023/08/01 06:54:20;;;;;;;12.30;3.33;;;16.70;99.90;;;;;;5035649;28;20181;-73
2023/08/01 06:56:47;;;;;;;8.02;3.08;;;16.80;99.90;;;;;;5031784;28;20227;-73
2023/08/01 06:59:16;;;;;;;9.82;3.15;;;16.90;99.90;;;;;;5031837;28;20221;-73
2023/08/01 07:01:43;;;;;;;12.40;3.17;;;16.90;99.90;;;;;;5031803;28;20166;-73
2023/08/01 07:04:13;;;;;;;11.43;2.30;;;16.80;99.90;;;;;;5031879;28;20178;-74
2023/08/01 07:06:39;;;;;;;11.98;2.90;;;17.20;99.90;;;;;;5031697;28;20226;-74
2023/08/01 07:09:05;;;;;;;11.38;3.00;;;16.90;99.90;;;;;;5031746;28;20177;-75
2023/08/01 07:11:31;;;;;;;15.60;2.55;;;17.10;99.90;;;;;;5031623;28;20166;-73
2023/08/01 07:13:57;;;;;;;9.85;2.38;;;17.20;99.90;;;;;;5030261;28;20174;-72
2023/08/01 07:16:23;;;;;;;9.68;1.90;;;17.10;99.90;;;;;;5031421;28;20175;-74
2023/08/01 07:18:48;;;;;;;16.52;2.70;;;17.20;99.90;;;;;;5031353;28;20220;-73
2023/08/01 07:21:14;;;;;;;9.27;2.25;;;17.30;99.90;;;;;;5031261;28;20170;-72
2023/08/01 07:23:40;;;;;;;9.98;2.50;;;17.30;99.90;;;;;;5035440;28;20288;-71
2023/08/01 07:26:06;;;;;;;11.27;2.40;;;17.20;99.90;;;;;;5051201;28;20181;-72
2023/08/01 07:28:31;;;;;;;9.77;2.35;;;17.30;99.90;;;;;;5051289;28;20269;-73
2023/08/01 07:31:01;;;;;;;13.98;2.20;;;17.30;99.90;;;;;;5051303;28;20660;-73
2023/08/01 07:33:27;;;;;;;8.70;2.17;;;17.40;99.90;;;;;;5049779;28;20181;-75
2023/08/01 07:35:53;;;;;;;10.27;2.50;;;17.40;99.90;;;;;;5032417;28;20170;-75
2023/08/01 07:38:18;;;;;;;15.93;2.50;;;17.40;99.90;;;;;;5039431;28;20204;-74
2023/08/01 07:40:44;;;;;;;15.60;2.75;;;17.30;99.90;;;;;;5051047;28;20717;-73
2023/08/01 07:43:10;;;;;;;11.27;2.85;;;;;;;;;;5051130;28;20173;-75
2023/08/01 07:45:36;;;;;;;12.40;2.65;;;17.30;99.90;;;;;;5050913;28;20594;-73
2023/08/01 07:48:02;;;;;;;15.40;2.63;;;17.50;99.90;;;;;;5049131;28;20177;-74
2023/08/01 07:50:28;;;;;;;14.18;2.55;;;17.40;99.90;;;;;;5050917;28;20248;-73
2023/08/01 07:52:54;;;;;;;9.52;2.08;;;17.60;99.90;;;;;;5050574;28;20180;-72
2023/08/01 07:55:20;;;;;;;13.43;2.25;;;17.50;99.90;;;;;;5049515;28;20173;-73
2023/08/01 07:57:46;;;;;;;14.10;2.30;;;17.60;99.90;;;;;;5048903;28;20635;-73
2023/08/01 08:00:12;;;;;;;10.85;2.60;;;17.80;99.90;;;;;;5042422;28;20217;-73
2023/08/01 08:02:38;;;;;;;11.23;2.40;;;18.00;99.90;;;;;;5020563;28;20181;-72
2023/08/01 08:05:04;;;;;;;9.65;2.40;;;18.20;99.90;;;;;;5030966;28;20177;-73
2023/08/01 08:07:31;;;;;;;12.85;2.38;;;18.30;99.90;;;;;;5015359;28;20181;-73
2023/08/01 08:09:57;;;;;;;14.25;2.45;;;18.30;99.90;;;;;;5026167;28;20178;-72
2023/08/01 08:12:22;;;;;;;10.27;2.78;;;18.40;99.90;;;;;;5011000;28;20167;-74
2023/08/01 08:14:48;;;;;;;8.95;2.17;;;18.50;99.90;;;;;;5010718;28;20175;-74
2023/08/01 08:17:15;;;;;;;12.60;3.13;;;18.30;99.90;;;;;;5011836;28;20181;-73
2023/08/01 08:19:40;;;;;;;12.13;2.60;;;18.50;99.90;;;;;;5029839;28;20263;-74
2023/08/01 08:22:06;;;;;;;16.20;2.83;;;18.60;99.90;;;;;;5029032;28;20185;-74
2023/08/01 08:24:32;;;;;;;8.18;2.35;;;18.70;99.90;;;;;;5037403;28;20201;-74
2023/08/01 08:26:57;;;;;;;13.48;3.10;;;18.70;99.90;;;;;;5035351;28;20170;-75
2023/08/01 08:29:23;;;;;;;9.63;2.55;;;18.90;99.90;;;;;;5035378;28;20240;-73
2023/08/01 08:31:50;;;;;;;14.40;3.17;;;18.90;99.90;;;;;;5046400;28;20177;-73
2023/08/01 08:34:15;;;;;;;11.55;2.78;;;19.00;99.90;;;;;;5050355;28;20169;-73
2023/08/01 08:36:41;;;;;;;9.93;3.05;;;19.00;99.90;;;;;;5046719;28;20298;-74
2023/08/01 08:39:07;;;;;;;13.07;2.63;;;19.30;99.90;;;;;;5043951;28;20292;-72
2023/08/01 08:41:41;;;;;;;10.90;2.83;;;19.60;99.90;;;;;;5036858;28;20644;-76
2023/08/01 08:44:08;;;;;;;13.95;2.80;;;19.80;99.90;;;;;;5031435;28;20234;-76
2023/08/01 08:46:42;;;;;;;11.93;2.45;;;20.50;99.90;;;;;;5043471;28;20185;-74
2023/08/01 08:49:08;;;;;;;13.25;2.60;;;20.60;99.90;;;;;;5040063;28;20272;-74
2023/08/01 08:51:36;;;;;;;11.95;2.78;;;21.20;99.90;;;;;;5054229;28;20188;-75
2023/08/01 08:54:03;;;;;;;6.25;2.40;;;21.90;99.90;;;;;;5048358;28;20185;-80
2023/08/01 08:56:29;;;;;;;11.10;3.20;;;21.80;99.90;;;;;;5037177;28;20181;-76
2023/08/01 08:58:56;;;;;;;10.77;3.00;;;22.20;99.90;;;;;;5043548;28;20339;-77
2023/08/01 09:01:21;;;;;;;13.63;3.30;;;22.60;99.90;;;;;;5054405;28;20218;-77
2023/08/01 09:03:47;;;;;;;9.52;2.78;;;22.90;99.90;;;;;;5054028;28;20185;-76
2023/08/01 09:06:20;;;;;;;8.02;2.72;;;22.50;99.90;;;;;;5037265;28;20252;-75
2023/08/01 09:08:55;;;;;;;7.00;3.17;;;22.30;99.90;;;;;;5033912;28;20169;-76
2023/08/01 09:11:20;;;;;;;9.90;2.88;;;22.40;99.90;;;;;;5032522;28;20200;-77
2023/08/01 09:13:48;;;;;;;6.78;2.33;;;22.30;99.90;;;;;;5033827;28;20637;-77
2023/08/01 09:16:15;;;;;;;5.60;1.92;;;22.10;99.90;;;;;;5033889;28;20535;-73
2023/08/01 09:18:51;;;;;;;6.25;1.92;;;21.40;99.90;;;;;;5040588;28;20232;-77
2023/08/01 09:21:21;;;;;;;7.65;1.90;;;21.30;99.90;;;;;;5043292;28;20177;-78
2023/08/01 09:23:47;;;;;;;8.00;2.45;;;21.60;99.90;;;;;;5053880;28;20171;-76
2023/08/01 09:26:18;;;;;;;10.40;1.92;;;21.10;99.90;;;;;;5053148;28;20679;-76
2023/08/01 09:28:43;;;;;;;8.15;2.22;;;21.10;99.90;;;;;;5053469;28;20219;-77
2023/08/01 09:31:10;;;;;;;8.25;1.98;;;21.90;99.90;;;;;;5051789;28;20185;-76
2023/08/01 09:33:41;;;;;;;7.10;1.83;;;21.80;99.90;;;;;;5052560;28;20200;-76
2023/08/01 09:36:07;;;;;;;5.85;1.98;;;21.60;99.90;;;;;;5055324;28;20235;-75
2023/08/01 09:38:37;;;;;;;8.48;2.03;;;21.40;99.90;;;;;;5050571;28;20216;-75
2023/08/01 09:41:04;;;;;;;9.63;1.98;;;21.30;99.90;;;;;;5053553;28;20174;-76
2023/08/01 09:43:37;;;;;;;8.35;1.80;;;21.40;99.90;;;;;;5044959;28;20173;-74
2023/08/01 09:46:06;;;;;;;13.32;2.38;;;22.00;99.90;;;;;;5045290;28;20177;-75
2023/08/01 09:48:31;;;;;;;6.03;1.75;;;21.60;99.90;;;;;;5036434;28;20165;-75
2023/08/01 09:51:14;;;;;;;8.90;2.10;;;22.20;99.90;;;;;;5053210;28;20276;-76
2023/08/01 09:53:53;;;;;;;6.13;1.52;;;22.70;99.90;;;;;;5053337;28;20250;-76
2023/08/01 09:56:20;;;;;;;6.28;2.05;;;22.10;99.90;;;;;;5057685;28;20215;-74
2023/08/01 09:58:46;;;;;;;7.22;1.85;;;22.70;99.90;;;;;;5053046;28;20244;-75
2023/08/01 10:01:14;;;;;;;7.07;1.85;;;22.90;99.90;;;;;;5052682;28;20177;-74
2023/08/01 10:03:46;;;;;;;6.60;1.75;;;22.90;99.90;;;;;;5053170;28;20173;-76
2023/08/01 10:06:19;;;;;;;10.00;1.98;;;23.20;99.90;;;;;;5051635;28;20188;-76
2023/08/01 10:08:45;;;;;;;9.40;1.73;;;23.00;99.90;;;;;;5052856;28;20177;-78
2023/08/01 10:11:14;;;;;;;7.38;1.75;;;22.60;99.90;;;;;;5052995;28;20173;-76
2023/08/01 10:13:41;;;;;;;5.20;1.42;;;22.00;99.90;;;;;;5044516;28;20181;-78
2023/08/01 10:16:08;;;;;;;6.75;1.40;;;22.50;99.90;;;;;;5041571;28;20169;-81
2023/08/01 10:18:34;;;;;;;7.63;1.75;;;;;;;;;;5035121;28;20252;-81
2023/08/01 10:21:00;;;;;;;7.70;1.52;;;21.80;99.90;;;;;;5033010;28;20182;-79
2023/08/01 10:23:27;;;;;;;7.63;1.40;;;22.20;99.90;;;;;;5015180;28;20587;-79
2023/08/01 10:25:54;;;;;;;5.60;1.38;;;22.50;99.90;;;;;;5033131;28;20224;-80
2023/08/01 10:28:30;;;;;;;9.80;1.80;;;22.70;99.90;;;;;;5033063;28;20287;-80
2023/08/01 10:31:09;;;;;;;7.07;1.50;;;22.90;99.90;;;;;;5032855;28;20223;-79
2023/08/01 10:33:36;;;;;;;5.60;1.40;;;22.70;99.90;;;;;;5044294;28;20184;-78
2023/08/01 10:36:22;;;;;;;6.68;1.27;;;22.60;99.90;;;;;;5034026;28;20184;-79
2023/08/01 10:38:56;;;;;;;4.22;1.25;;;22.10;99.90;;;;;;5032935;28;20208;-79
2023/08/01 10:41:33;;;;;;;10.07;1.42;;;22.50;99.90;;;;;;5032793;28;20640;-80
2023/08/01 10:44:09;;;;;;;10.45;1.88;;;23.00;99.90;;;;;;5032238;28;20182;-80
2023/08/01 10:46:48;;;;;;;10.68;1.90;;;23.30;99.90;;;;;;5031236;28;20196;-79
2023/08/01 10:49:13;;;;;;;7.65;1.88;;;23.50;99.90;;;;;;5032459;28;20207;-80
2023/08/01 10:51:39;;;;;;;9.70;1.75;;;23.30;99.90;;;;;;5032454;28;20499;-79
2023/08/01 10:54:05;;;;;;;9.95;1.80;;;23.70;99.90;;;;;;5031028;28;20173;-79
2023/08/01 10:56:31;;;;;;;6.45;1.55;;;23.90;99.90;;;;;;5032697;28;20267;-80
2023/08/01 10:58:58;;;;;;;5.55;1.30;;;23.60;99.90;;;;;;5034418;28;20308;-80
2023/08/01 11:01:26;;;;;;;6.75;1.55;;;22.60;99.90;;;;;;5033055;28;20182;-79
2023/08/01 11:03:52;;;;;;;7.32;1.35;;;22.70;99.90;;;;;;5032290;28;20162;-79
2023/08/01 11:06:17;;;;;;;4.65;1.40;;;24.00;99.90;;;;;;5031875;28;20174;-80
2023/08/01 11:08:43;;;;;;;6.35;1.70;;;24.00;99.90;;;;;;5024093;28;20185;-78
2023/08/01 11:11:12;;;;;;;8.00;1.88;;;24.00;99.90;;;;;;5040303;28;20549;-81
2023/08/01 11:13:38;;;;;;;7.15;1.33;;;24.20;99.90;;;;;;5037636;28;20192;-79
2023/08/01 11:16:05;;;;;;;4.90;1.30;;;23.70;99.90;;;;;;5031009;28;20628;-79
2023/08/01 11:18:43;;;;;;;6.90;1.40;;;23.30;99.90;;;;;;5032442;28;20260;-81
2023/08/01 11:21:08;;;;;;;6.40;1.38;;;22.80;99.90;;;;;;5032474;28;20174;-80
2023/08/01 11:23:36;;;;;;;7.28;1.70;;;23.10;99.90;;;;;;5032434;28;20204;-80
2023/08/01 11:26:08;;;;;;;12.13;2.22;;;22.50;99.90;;;;;;5032284;28;20169;-81
2023/08/01 11:28:35;;;;;;;7.72;1.60;;;22.70;99.90;;;;;;5031914;28;20271;-82
2023/08/01 11:31:01;;;;;;;6.10;1.77;;;22.00;99.90;;;;;;5032058;28;20186;-81
2023/08/01 11:33:26;;;;;;;10.75;1.75;;;21.90;99.90;;;;;;5032247;28;20177;-80
2023/08/01 11:35:53;;;;;;;8.57;1.70;;;22.50;99.90;;;;;;5031315;28;20182;-80
2023/08/01 11:38:21;;;;;;;11.88;1.98;;;22.60;99.90;;;;;;5031210;28;20239;-79
2023/08/01 11:40:49;;;;;;;7.07;1.60;;;22.90;99.90;;;;;;5031226;28;20668;-79
2023/08/01 11:43:15;;;;;;;8.80;2.20;;;22.40;99.90;;;;;;5032381;28;20220;-81
2023/08/01 11:45:54;;;;;;;8.45;1.50;;;22.80;99.90;;;;;;5031727;28;20188;-81
2023/08/01 11:48:22;;;;;;;8.27;1.50;;;22.60;99.90;;;;;;5039293;28;20192;-78
2023/08/01 11:50:47;;;;;;;11.32;1.83;;;22.60;99.90;;;;;;5039958;28;20178;-82
2023/08/01 11:53:21;;;;;;;5.65;1.50;;;22.70;99.90;;;;;;5031772;28;20661;-82
2023/08/01 11:55:47;;;;;;;7.90;1.60;;;23.20;99.90;;;;;;5022990;28;20174;-82
2023/08/01 11:58:14;;;;;;;8.65;1.35;;;23.60;99.90;;;;;;5012535;28;20165;-81
2023/08/01 12:00:40;;;;;;;9.00;1.63;;;23.90;99.90;;;;;;5026604;28;20738;-80
2023/08/01 12:03:12;;;;;;;13.38;1.85;;;24.40;99.90;;;;;;5034239;28;20223;-80
2023/08/01 12:05:41;;;;;;;6.90;1.25;;;23.50;99.90;;;;;;5038628;28;20268;-81
2023/08/01 12:08:13;;;;;;;6.28;1.27;;;23.50;99.90;;;;;;5051614;28;20207;-80
2023/08/01 12:10:44;;;;;;;5.97;1.40;;;24.00;99.90;;;;;;5050926;28;20654;-80
2023/08/01 12:13:20;;;;;;;6.03;1.33;;;23.50;99.90;;;;;;5051036;28;20169;-80
2023/08/01 12:15:48;;;;;;;7.03;1.60;;;23.60;99.90;;;;;;5043964;28;20174;-78
2023/08/01 12:18:20;;;;;;;4.18;1.20;;;24.00;99.90;;;;;;5031004;28;20170;-81
2023/08/01 12:20:46;;;;;;;6.82;1.15;;;;;;;;;;5030207;28;20174;-82
2023/08/01 12:23:12;;;;;;;9.60;1.30;;;23.40;99.90;;;;;;5033263;28;20560;-81
2023/08/01 12:25:37;;;;;;;3.58;1.08;;;23.60;99.90;;;;;;5039860;28;20280;-78
2023/08/01 12:28:03;;;;;;;5.38;1.17;;;24.10;99.90;;;;;;5053666;28;20185;-76
2023/08/01 12:30:29;;;;;;;6.47;1.48;;;23.90;99.90;;;;;;5033998;28;20180;-79
2023/08/01 12:32:54;;;;;;;11.55;1.95;;;24.00;99.90;;;;;;5033368;28;20177;-78
2023/08/01 12:35:20;;;;;;;5.30;1.00;;;23.70;99.90;;;;;;5041652;28;20639;-79
2023/08/01 12:37:45;;;;;;;7.88;1.33;;;22.40;99.90;;;;;;5054914;28;20556;-78
2023/08/01 12:40:11;;;;;;;7.57;1.50;;;22.60;99.90;;;;;;5041841;28;20221;-77
2023/08/01 12:42:37;;;;;;;8.20;1.38;;;22.10;99.90;;;;;;5033468;28;20647;-77
2023/08/01 12:45:03;;;;;;;8.00;1.35;;;;;;;;;;5034455;28;20201;-79